Airfield :
LOGIN :

Register | Disclaimer

   EN    FR    IT 

 










Legend :    VFR   Marginal VFR   IFR   Intensive IFR   Very Intensive IFR
Visi :
Ceiling :
>= 8 km
>= 3000ft
5 to 8 km
1000 to 3000 ft
1500m to 5 km
500 to 1000 ft
800 to 1500m
200 to 500 ft
< 800m
< 200 ft
Symbols :   Thunderstorms  Fog  Heavy snow  Heavy precipitations  Wind > 20 kt
SIGMETs :     Misc.  Thunderstorms  Icing  Turbulence  Mountain Waves  Volcanic Ashes






- Airport Elevation : 45 ft
- IATA code : CEG


EGNR - Hawarden Chester

CURRENT METAR :
  • 291250Z 23019KT 9999 -SHRA FEW018 SCT022CB 05/00 Q0979

EXPIRED METARs :
  • 291220Z 21017KT 9999 VCSH FEW018 SCT022CB 05/01 Q0979
  • 291150Z 21013KT 9999 VCSH FEW018 SCT022CB 05/01 Q0979
  • 291120Z 24017KT 9999 7000S VCSH FEW018 SCT024 06/M02 Q0979
  • 291050Z 25017G28KT 220V280 9999 FEW018 SCT030 07/M02 Q0979
  • 291020Z 24012KT 210V280 9999 SCT030 06/M01 Q0979

TAF AMD TAF EGNR
Valid from the 29 at 12:00 until the 29 at 19:00 UTC


291247Z 2912/2919 23020G30KT 9999 SCT025
PROB30
TEMPO 2912/2915 8000 SHRA BKN012
BECMG 2915/2918 22025G45KT 7000 RA BKN014
PROB30
TEMPO 2916/2919 4000 +RA BKN008



MET'MAP, your aeronautical weather chart ! - Copyright ORBIFLY December 2007 - Disclaimer

ORBIFLY MET'MAP TEAM :

Programming & Development : Alexandra Zaïnal
Concept & original design : Baudouin d'Aumeries
Assistance for programming : Marc-Olivier Méhu
Technical & hardware support : Manuel Goepfert

Contact : metmap@orbifly.com




SOURCES & CREDITS :

   NOAA